Time;durP1;ratioP1;P1;durP2;ratioP2;P2;SDS_P1;SDS_P2;PMS_P1;PMS_P2;Temp;Humidity;BMP_temperature;BMP_pressure;BME280_temperature;BME280_humidity;BME280_pressure;Samples;Min_cycle;Max_cycle;Signal;HPM_P1;HPM_P2
2022/05/11 00:01:58;;;;;;;;;;;;;;;6.91;89.80;100087.73;1781460;79;20211;-72
2022/05/11 00:04:25;;;;;;;;;;;;;;;6.85;90.24;100089.64;1816934;79;20106;-70
2022/05/11 00:06:52;;;;;;;;;;;;;;;6.81;91.73;100086.91;1816855;79;20106;-72
2022/05/11 00:09:22;;;;;;;;;;;;;;;6.75;92.62;100092.88;1817066;79;20391;-72
2022/05/11 00:11:50;;;;;;;;;;;;;;;6.69;93.31;100093.44;1816723;79;20086;-72
2022/05/11 00:14:17;;;;;;;;;;;;;;;6.61;94.59;100093.67;1817168;79;20133;-72
2022/05/11 00:16:44;;;;;;;;;;;;;;;6.53;95.66;100094.87;1817155;79;20102;-70
2022/05/11 00:19:10;;;;;;;;;;;;;;;6.45;96.25;100093.42;1817026;79;20125;-73
2022/05/11 00:21:37;;;;;;;;;;;;;;;6.36;97.39;100088.41;1816838;79;20101;-73
2022/05/11 00:24:05;;;;;;;;;;;;;;;6.29;98.44;100091.31;1817062;79;20364;-72
2022/05/11 00:26:34;;;;;;;;;;;;;;;6.22;100.00;100092.38;1817119;79;20090;-72
2022/05/11 00:29:01;;;;;;;;;;;;;;;6.15;100.00;100093.92;1817090;79;20105;-73
2022/05/11 00:31:28;;;;;;;;;;;;;;;6.11;100.00;100093.87;1816729;79;20094;-72
2022/05/11 00:33:55;;;;;;;;;;;;;;;6.08;100.00;100094.98;1815045;79;20243;-72
2022/05/11 00:36:21;;;;;;;;;;;;;;;6.06;100.00;100091.59;1785153;80;20088;-72
2022/05/11 00:38:48;;;;;;;;;;;;;;;6.02;100.00;100082.13;1785056;80;20151;-72
2022/05/11 00:41:15;;;;;;;;;;;;;;;5.98;100.00;100086.57;1784816;80;20123;-73
2022/05/11 00:43:44;;;;;;;;;;;;;;;5.96;100.00;100083.19;1785060;80;20104;-72
2022/05/11 00:46:21;;;;;;;;;;;;;;;5.93;100.00;100088.79;1781750;80;20400;-72
2022/05/11 00:51:25;;;;;;;;;;;;;;;5.84;100.00;100086.45;1667083;86;20195;-73
2022/05/11 00:53:52;;;;;;;;;;;;;;;5.80;100.00;100085.04;1666722;86;20124;-72
2022/05/11 00:56:19;;;;;;;;;;;;;;;5.75;100.00;100080.58;1667165;86;20171;-72
2022/05/11 00:58:49;;;;;;;;;;;;;;;5.70;100.00;100083.20;1667127;86;20423;-71
2022/05/11 01:01:16;;;;;;;;;;;;;;;5.66;100.00;100091.65;1617900;88;20120;-73
2022/05/11 01:03:47;;;;;;;;;;;;;;;5.64;100.00;100087.76;1615575;89;20132;-73
2022/05/11 01:06:14;;;;;;;;;;;;;;;5.60;100.00;100084.16;1623656;88;20120;-73
2022/05/11 01:08:41;;;;;;;;;;;;;;;5.58;100.00;100088.33;1623885;88;20147;-73
2022/05/11 01:11:09;;;;;;;;;;;;;;;5.55;100.00;100077.86;1623775;88;20140;-72
2022/05/11 01:13:37;;;;;;;;;;;;;;;5.54;100.00;100082.86;1623763;88;20468;-72
2022/05/11 01:16:04;;;;;;;;;;;;;;;5.50;100.00;100080.11;1623942;88;20132;-73
2022/05/11 01:18:31;;;;;;;;;;;;;;;5.47;100.00;100082.58;1623656;87;20116;-73
2022/05/11 01:20:59;;;;;;;;;;;;;;;5.44;100.00;100077.98;1623905;88;20120;-71
2022/05/11 01:23:50;;;;;;;;;;;;;;;5.39;100.00;100075.70;1623880;87;20141;-71
2022/05/11 01:26:18;;;;;;;;;;;;;;;5.36;100.00;100074.63;1591784;89;20158;-73
2022/05/11 01:28:47;;;;;;;;;;;;;;;5.33;100.00;100072.24;1687137;84;20211;-73
2022/05/11 01:31:15;;;;;;;;;;;;;;;5.29;100.00;100078.38;1712464;84;20121;-73
2022/05/11 01:33:46;;;;;;;;;;;;;;;5.27;100.00;100073.61;1711346;82;20450;-73
2022/05/11 01:36:30;;;;;;;;;;;;;;;5.24;100.00;100072.56;1714229;84;20109;-73
2022/05/11 01:39:00;;;;;;;;;;;;;;;5.20;100.00;100068.44;1714495;84;20117;-72
2022/05/11 01:41:34;;;;;;;;;;;;;;;5.18;100.00;100069.07;1714271;84;20116;-72
2022/05/11 01:46:33;;;;;;;;;;;;;;;5.11;100.00;100054.52;1699528;84;20111;-72
2022/05/11 01:49:00;;;;;;;;;;;;;;;5.08;100.00;100061.01;1687085;85;20158;-72
2022/05/11 01:51:26;;;;;;;;;;;;;;;5.04;100.00;100059.56;1686919;85;20111;-72
2022/05/11 01:53:53;;;;;;;;;;;;;;;5.00;100.00;100057.30;1686955;85;20395;-73
2022/05/11 01:56:21;;;;;;;;;;;;;;;4.94;100.00;100059.53;1686591;84;20188;-73
2022/05/11 01:58:49;;;;;;;;;;;;;;;4.91;100.00;100057.62;1706996;83;20185;-73
2022/05/11 02:01:16;;;;;;;;;;;;;;;4.88;100.00;100053.86;1734925;83;20149;-73
2022/05/11 02:03:43;;;;;;;;;;;;;;;4.87;100.00;100060.19;1696326;83;20153;-72
2022/05/11 02:08:56;;;;;;;;;;;;;;;4.88;100.00;100052.02;1712714;84;20146;-73
2022/05/11 02:11:23;;;;;;;;;;;;;;;4.88;100.00;100053.36;1712663;84;20114;-73
2022/05/11 02:13:51;;;;;;;;;;;;;;;4.90;100.00;100056.75;1712841;84;20130;-72
2022/05/11 02:16:18;;;;;;;;;;;;;;;4.92;100.00;100057.95;1712593;84;20157;-72
2022/05/11 02:18:45;;;;;;;;;;;;;;;4.92;100.00;100050.79;1712992;84;20178;-73
2022/05/11 02:21:13;;;;;;;;;;;;;;;4.93;100.00;100052.47;1715652;83;20097;-73
2022/05/11 02:23:40;;;;;;;;;;;;;;;4.93;100.00;100049.78;1697415;85;20098;-73
2022/05/11 02:26:11;;;;;;;;;;;;;;;4.94;100.00;100045.30;1697283;85;20409;-73
2022/05/11 02:28:39;;;;;;;;;;;;;;;4.95;100.00;100038.44;1697360;85;20101;-73
2022/05/11 02:31:05;;;;;;;;;;;;;;;4.97;100.00;100042.33;1697758;85;20437;-72
2022/05/11 02:33:32;;;;;;;;;;;;;;;5.00;100.00;100041.23;1697583;85;20098;-72
2022/05/11 02:35:59;;;;;;;;;;;;;;;5.03;100.00;100043.14;1691133;83;20118;-72
2022/05/11 02:38:28;;;;;;;;;;;;;;;5.06;100.00;100038.83;1690985;85;20466;-72
2022/05/11 02:40:54;;;;;;;;;;;;;;;5.07;100.00;100036.52;1691055;85;20452;-72
2022/05/11 02:43:21;;;;;;;;;;;;;;;5.08;100.00;100036.89;1731831;81;20410;-72
2022/05/11 02:45:49;;;;;;;;;;;;;;;5.10;100.00;100042.12;1771491;81;20133;-71
2022/05/11 02:48:20;;;;;;;;;;;;;;;5.12;100.00;100042.33;1796014;80;20126;-73
2022/05/11 02:50:49;;;;;;;;;;;;;;;5.13;100.00;100035.12;1802590;80;20105;-72
2022/05/11 02:53:16;;;;;;;;;;;;;;;5.18;100.00;100044.11;1675393;85;20113;-73
2022/05/11 02:55:46;;;;;;;;;;;;;;;5.22;100.00;100048.20;1675574;86;20389;-72
2022/05/11 02:58:13;;;;;;;;;;;;;;;5.24;100.00;100044.41;1675284;86;20108;-72
2022/05/11 03:00:43;;;;;;;;;;;;;;;5.29;100.00;100048.88;1675748;86;20142;-73
2022/05/11 03:03:11;;;;;;;;;;;;;;;5.32;100.00;100047.74;1676046;84;20129;-72
2022/05/11 03:05:39;;;;;;;;;;;;;;;5.39;100.00;100048.05;1670042;86;20117;-73
2022/05/11 03:08:07;;;;;;;;;;;;;;;5.44;100.00;100048.48;1670574;86;20122;-73
2022/05/11 03:10:34;;;;;;;;;;;;;;;5.50;100.00;100054.13;1670044;86;20115;-73
2022/05/11 03:13:03;;;;;;;;;;;;;;;5.59;100.00;100051.11;1670379;86;20426;-72
2022/05/11 03:15:30;;;;;;;;;;;;;;;5.69;100.00;100052.48;1670132;86;20105;-72
2022/05/11 03:17:57;;;;;;;;;;;;;;;5.77;100.00;100048.62;1670199;86;20133;-73
2022/05/11 03:20:26;;;;;;;;;;;;;;;5.84;100.00;100048.41;1671868;86;20113;-72
2022/05/11 03:22:54;;;;;;;;;;;;;;;5.92;100.00;100050.87;1670061;86;20134;-73
2022/05/11 03:25:22;;;;;;;;;;;;;;;6.00;100.00;100055.06;1670236;86;20137;-72
2022/05/11 03:27:49;;;;;;;;;;;;;;;6.08;100.00;100058.73;1670182;85;20117;-72
2022/05/11 03:30:16;;;;;;;;;;;;;;;6.17;100.00;100061.06;1670238;86;20137;-72
2022/05/11 03:35:29;;;;;;;;;;;;;;;6.36;100.00;100055.34;1658981;86;20420;-72
2022/05/11 03:37:56;;;;;;;;;;;;;;;6.45;100.00;100059.84;1650017;86;20131;-71
2022/05/11 03:40:23;;;;;;;;;;;;;;;6.52;100.00;100061.47;1650252;87;20128;-73
2022/05/11 03:42:51;;;;;;;;;;;;;;;6.61;100.00;100060.59;1649973;87;20112;-72
2022/05/11 03:45:22;;;;;;;;;;;;;;;6.72;100.00;100067.63;1649969;87;20112;-72
2022/05/11 03:47:50;;;;;;;;;;;;;;;6.80;100.00;100058.36;1650254;87;20111;-73
2022/05/11 03:50:19;;;;;;;;;;;;;;;6.90;100.00;100055.62;1759192;80;20412;-72
2022/05/11 03:52:46;;;;;;;;;;;;;;;7.01;100.00;100064.36;1788647;80;20101;-72
2022/05/11 03:55:13;;;;;;;;;;;;;;;7.13;100.00;100064.16;1794808;80;20120;-72
2022/05/11 03:57:40;;;;;;;;;;;;;;;7.21;100.00;100066.46;1827057;79;20109;-72
2022/05/11 04:00:11;;;;;;;;;;;;;;;7.33;100.00;100065.77;1827142;79;20137;-72
2022/05/11 04:02:41;;;;;;;;;;;;;;;7.45;100.00;100064.22;1826962;78;20418;-72
2022/05/11 04:05:09;;;;;;;;;;;;;;;7.56;100.00;100062.17;1805276;78;20106;-71
2022/05/11 04:07:37;;;;;;;;;;;;;;;7.68;100.00;100061.95;1830578;78;20395;-72
2022/05/11 04:10:05;;;;;;;;;;;;;;;7.82;100.00;100067.31;1830577;78;20101;-69
2022/05/11 04:12:31;;;;;;;;;;;;;;;7.95;100.00;100071.80;1831012;78;20390;-73
2022/05/11 04:14:58;;;;;;;;;;;;;;;8.08;100.00;100065.55;1830861;78;20414;-72
2022/05/11 04:17:25;;;;;;;;;;;;;;;8.22;100.00;100064.67;1830799;78;20122;-70
2022/05/11 04:19:52;;;;;;;;;;;;;;;8.37;100.00;100069.83;1830304;78;20157;-72
2022/05/11 04:22:19;;;;;;;;;;;;;;;8.54;100.00;100065.45;1831026;78;20437;-72
2022/05/11 04:24:46;;;;;;;;;;;;;;;8.71;100.00;100067.75;1831083;78;20101;-72
2022/05/11 04:27:13;;;;;;;;;;;;;;;8.88;100.00;100071.41;1830926;78;20132;-73
2022/05/11 04:29:40;;;;;;;;;;;;;;;9.07;100.00;100067.64;1831344;78;20382;-71
2022/05/11 04:32:07;;;;;;;;;;;;;;;9.26;100.00;100070.10;1830759;78;20121;-68
2022/05/11 04:34:34;;;;;;;;;;;;;;;9.45;100.00;100060.87;1817644;78;20168;-67
2022/05/11 04:37:01;;;;;;;;;;;;;;;9.71;100.00;100065.88;1785496;80;20104;-66
2022/05/11 04:39:28;;;;;;;;;;;;;;;9.89;98.81;100066.05;1791890;80;20393;-68
2022/05/11 04:41:56;;;;;;;;;;;;;;;10.12;98.12;100069.47;1823877;79;20153;-69
2022/05/11 04:44:23;;;;;;;;;;;;;;;10.31;93.35;100062.94;1823974;79;20098;-69
2022/05/11 04:46:51;;;;;;;;;;;;;;;10.50;89.50;100070.35;1822097;79;20106;-68
2022/05/11 04:49:21;;;;;;;;;;;;;;;10.65;87.95;100074.06;1814381;79;20090;-69
2022/05/11 04:51:49;;;;;;;;;;;;;;;10.81;87.09;100074.55;1814398;79;20102;-68
2022/05/11 04:54:16;;;;;;;;;;;;;;;11.02;82.51;100071.30;1814627;79;20472;-68
2022/05/11 04:56:43;;;;;;;;;;;;;;;11.23;79.01;100061.25;1814327;79;20394;-67
2022/05/11 04:59:12;;;;;;;;;;;;;;;11.50;77.81;100071.30;1814160;79;20383;-67
2022/05/11 05:01:40;;;;;;;;;;;;;;;11.80;76.29;100056.59;1814321;79;20129;-70
2022/05/11 05:04:07;;;;;;;;;;;;;;;12.08;73.30;100065.91;1815078;79;20149;-69
2022/05/11 05:06:34;;;;;;;;;;;;;;;12.26;69.46;100061.53;1816873;79;20130;-63
2022/05/11 05:09:02;;;;;;;;;;;;;;;12.38;67.81;100065.16;1792311;79;20435;-65
2022/05/11 05:11:29;;;;;;;;;;;;;;;12.53;66.15;100067.41;1817543;79;20094;-70
2022/05/11 05:13:56;;;;;;;;;;;;;;;12.67;64.83;100068.47;1816039;79;20126;-70
2022/05/11 05:16:23;;;;;;;;;;;;;;;12.80;62.96;100061.91;1814675;78;20109;-69
2022/05/11 05:18:51;;;;;;;;;;;;;;;12.88;61.44;100063.69;1806866;79;20131;-71
2022/05/11 05:21:18;;;;;;;;;;;;;;;12.94;60.79;100058.03;1797026;80;20151;-69
2022/05/11 05:23:46;;;;;;;;;;;;;;;12.96;58.73;100058.68;1797304;80;20148;-71
2022/05/11 05:26:12;;;;;;;;;;;;;;;12.92;57.56;100065.00;1813161;78;20152;-69
2022/05/11 05:31:28;;;;;;;;;;;;;;;12.98;58.29;100060.20;1764342;81;20134;-71
2022/05/11 05:33:59;;;;;;;;;;;;;;;13.11;58.54;100067.68;1794313;80;20104;-70
2022/05/11 05:36:23;;;;;;;;;;;;;;;13.23;58.04;100062.64;1819382;79;20098;-70
2022/05/11 05:38:50;;;;;;;;;;;;;;;13.29;58.29;100062.70;1822683;79;20394;-71
2022/05/11 05:41:17;;;;;;;;;;;;;;;13.36;57.85;100057.39;1822807;79;20109;-69
2022/05/11 05:43:44;;;;;;;;;;;;;;;13.47;57.37;100061.50;1822638;79;20164;-72
2022/05/11 05:46:11;;;;;;;;;;;;;;;13.57;56.77;100057.98;1822873;79;20098;-69
2022/05/11 05:48:38;;;;;;;;;;;;;;;13.67;56.84;100063.13;1809273;79;20437;-70
2022/05/11 05:51:07;;;;;;;;;;;;;;;13.76;57.31;100065.22;1825799;79;20113;-69
2022/05/11 05:53:35;;;;;;;;;;;;;;;13.79;55.51;100061.60;1805220;80;20107;-68
2022/05/11 05:56:03;;;;;;;;;;;;;;;13.78;55.09;100063.15;1805254;80;20108;-71
2022/05/11 05:58:30;;;;;;;;;;;;;;;13.79;55.14;100067.53;1805114;80;21085;-70
2022/05/11 06:00:57;;;;;;;;;;;;;;;13.83;54.12;100064.78;1805450;80;20111;-69
2022/05/11 06:03:26;;;;;;;;;;;;;;;13.87;54.70;100067.42;1804965;79;20131;-70
2022/05/11 06:05:53;;;;;;;;;;;;;;;13.96;55.08;100065.44;1810491;79;20123;-72
2022/05/11 06:08:21;;;;;;;;;;;;;;;14.09;55.08;100061.48;1809586;79;20432;-70
2022/05/11 06:10:48;;;;;;;;;;;;;;;14.12;53.95;100062.98;1810166;79;20166;-69
2022/05/11 06:13:16;;;;;;;;;;;;;;;14.14;54.22;100064.98;1810396;79;20373;-70
2022/05/11 06:15:43;;;;;;;;;;;;;;;14.16;53.62;100073.79;1809603;79;20111;-69
2022/05/11 06:18:10;;;;;;;;;;;;;;;14.15;53.05;100068.88;1810436;79;20108;-69
2022/05/11 06:20:38;;;;;;;;;;;;;;;14.21;53.91;100078.97;1809979;79;20213;-69
2022/05/11 06:23:05;;;;;;;;;;;;;;;14.29;54.17;100071.71;1810180;79;20099;-71
2022/05/11 06:25:33;;;;;;;;;;;;;;;14.33;53.42;100067.59;1778355;81;20126;-69
2022/05/11 06:27:59;;;;;;;;;;;;;;;14.23;52.98;100068.73;1777588;81;20098;-68
2022/05/11 06:30:27;;;;;;;;;;;;;;;14.18;53.57;100077.16;1778160;81;20106;-71
2022/05/11 06:32:54;;;;;;;;;;;;;;;14.13;54.39;100072.31;1777762;81;20094;-68
2022/05/11 06:35:22;;;;;;;;;;;;;;;14.17;54.82;100072.77;1786217;79;20128;-69
2022/05/11 06:37:51;;;;;;;;;;;;;;;14.24;55.48;100075.03;1790622;80;20096;-69
2022/05/11 06:40:17;;;;;;;;;;;;;;;14.32;54.53;100075.41;1793839;79;20470;-69
2022/05/11 06:42:45;;;;;;;;;;;;;;;14.37;55.17;100075.67;1800500;80;20111;-70
2022/05/11 06:45:12;;;;;;;;;;;;;;;14.44;55.41;100069.77;1800882;80;20131;-69
2022/05/11 06:47:39;;;;;;;;;;;;;;;14.55;55.33;100067.87;1805517;79;20084;-69
2022/05/11 06:50:06;;;;;;;;;;;;;;;14.67;55.63;100069.58;1809501;79;20135;-69
2022/05/11 06:52:33;;;;;;;;;;;;;;;14.81;54.55;100071.36;1795525;79;20100;-68
2022/05/11 07:00:32;;;;;;;;;;;;;;;15.54;53.96;100055.13;1794852;80;20120;-69
2022/05/11 07:02:59;;;;;;;;;;;;;;;15.82;53.05;100061.03;1795359;80;20120;-71
2022/05/11 07:05:27;;;;;;;;;;;;;;;16.01;52.39;100043.88;1793277;80;20127;-72
2022/05/11 07:07:53;;;;;;;;;;;;;;;16.26;51.47;100043.30;1794049;80;20123;-70
2022/05/11 07:10:20;;;;;;;;;;;;;;;16.47;50.01;100037.64;1794092;80;20128;-71
2022/05/11 07:12:48;;;;;;;;;;;;;;;16.67;49.64;100036.80;1794331;80;20100;-70
2022/05/11 07:15:16;;;;;;;;;;;;;;;16.95;48.10;100035.75;1793938;80;20128;-70
2022/05/11 07:17:49;;;;;;;;;;;;;;;17.09;47.47;100036.03;1793388;80;20420;-71
2022/05/11 07:20:19;;;;;;;;;;;;;;;17.38;47.42;100022.36;1794290;80;20116;-69
2022/05/11 07:22:45;;;;;;;;;;;;;;;17.76;47.26;100025.67;1793809;80;20124;-70
2022/05/11 07:25:15;;;;;;;;;;;;;;;18.06;43.37;100018.78;1793387;80;20096;-70
2022/05/11 07:38:41;;;;;;;;;;;;;;;18.49;41.17;100015.31;1706761;81;20178;-70
2022/05/11 07:41:08;;;;;;;;;;;;;;;18.77;40.54;100018.96;1704461;84;20226;-74
2022/05/11 07:43:37;;;;;;;;;;;;;;;19.06;40.03;100015.21;1704323;84;20150;-72
2022/05/11 07:46:04;;;;;;;;;;;;;;;19.20;39.28;100021.39;1704065;84;20181;-70
2022/05/11 07:48:31;;;;;;;;;;;;;;;19.38;39.37;100015.88;1709800;81;20171;-72
2022/05/11 07:50:57;;;;;;;;;;;;;;;19.58;38.23;100003.28;1764581;81;20159;-70
2022/05/11 07:53:24;;;;;;;;;;;;;;;19.55;38.49;100007.88;1734985;83;20178;-71
2022/05/11 07:59:52;;;;;;;;;;;;;;;19.67;38.53;100010.66;1734116;83;20163;-70
2022/05/11 08:01:05;;;;;;;;;;;;;;;19.66;36.18;100008.45;1734525;83;20119;-70
2022/05/11 08:03:32;;;;;;;;;;;;;;;19.79;35.83;100001.15;1734735;82;20158;-70
2022/05/11 08:06:01;;;;;;;;;;;;;;;19.95;35.64;99997.73;1735044;83;20163;-75
2022/05/11 08:08:31;;;;;;;;;;;;;;;20.05;36.17;99981.55;1735008;83;20132;-69
2022/05/11 08:10:58;;;;;;;;;;;;;;;20.33;36.52;99983.31;1735194;83;20159;-71
2022/05/11 08:13:24;;;;;;;;;;;;;;;20.69;36.19;99984.22;1734575;83;20399;-72
2022/05/11 08:15:51;;;;;;;;;;;;;;;20.65;34.62;99976.45;1734629;81;20135;-70
2022/05/11 08:18:18;;;;;;;;;;;;;;;20.63;34.66;99972.28;1734392;81;20155;-70
2022/05/11 08:20:46;;;;;;;;;;;;;;;20.61;35.24;99976.64;1735436;83;20140;-72
2022/05/11 08:23:14;;;;;;;;;;;;;;;20.69;33.89;99974.61;1735648;83;20143;-70
2022/05/11 08:25:43;;;;;;;;;;;;;;;20.75;33.95;99959.38;1734689;83;20186;-70
2022/05/11 08:28:12;;;;;;;;;;;;;;;20.85;33.54;99966.45;1735052;83;20115;-70
2022/05/11 08:33:26;;;;;;;;;;;;;;;21.19;33.71;99958.38;1675269;86;20169;-72
2022/05/11 08:35:58;;;;;;;;;;;;;;;21.50;33.49;99949.97;1675607;86;20192;-70
2022/05/11 08:38:26;;;;;;;;;;;;;;;21.52;32.51;99951.93;1671032;84;20140;-70
2022/05/11 08:41:26;;;;;;;;;;;;;;;21.52;32.84;99951.38;1669803;85;20157;-70
2022/05/11 08:43:59;;;;;;;;;;;;;;;21.35;30.80;99958.16;1670093;86;20482;-70
2022/05/11 08:46:47;;;;;;;;;;;;;;;21.01;31.83;99959.38;1637979;88;20124;-71
2022/05/11 08:49:23;;;;;;;;;;;;;;;21.10;31.99;99952.97;1637933;87;20187;-69
2022/05/11 08:52:01;;;;;;;;;;;;;;;21.36;32.45;99947.47;1586355;89;20143;-69
2022/05/11 08:54:35;;;;;;;;;;;;;;;21.51;31.50;99949.70;1537815;92;20138;-70
2022/05/11 08:57:02;;;;;;;;;;;;;;;21.37;31.39;99944.16;1536295;93;20137;-69
2022/05/11 08:59:31;;;;;;;;;;;;;;;21.34;31.60;99933.13;1518685;93;20465;-72
2022/05/11 09:02:05;;;;;;;;;;;;;;;21.40;31.54;99932.68;1488468;95;21763;-72
2022/05/11 09:04:38;;;;;;;;;;;;;;;21.41;30.75;99934.37;1480353;97;20122;-69
2022/05/11 09:07:06;;;;;;;;;;;;;;;21.32;31.13;99929.80;1437679;100;20123;-72
2022/05/11 09:09:33;;;;;;;;;;;;;;;21.39;30.98;99929.66;1437160;98;20328;-70
2022/05/11 09:12:00;;;;;;;;;;;;;;;21.48;31.40;99926.83;1436918;98;20162;-70
2022/05/11 09:14:41;;;;;;;;;;;;;;;21.65;31.26;99921.90;1436862;99;20187;-70
2022/05/11 09:17:24;;;;;;;;;;;;;;;21.67;30.38;99915.05;1428981;99;20461;-70
2022/05/11 09:20:05;;;;;;;;;;;;;;;21.37;30.48;99927.66;1448417;99;20126;-70
2022/05/11 09:22:33;;;;;;;;;;;;;;;21.32;31.42;99932.55;1447764;99;20151;-70
2022/05/11 09:25:03;;;;;;;;;;;;;;;21.37;31.20;99914.77;1448172;99;20166;-69
2022/05/11 09:27:33;;;;;;;;;;;;;;;21.36;31.37;99921.34;1460244;98;20161;-68
2022/05/11 09:30:05;;;;;;;;;;;;;;;21.23;31.08;99917.52;1461782;97;20129;-70
2022/05/11 09:32:44;;;;;;;;;;;;;;;21.03;31.26;99916.02;1469363;96;20193;-70
2022/05/11 09:35:36;;;;;;;;;;;;;;;20.83;32.36;99921.08;1467823;96;20132;-70
2022/05/11 09:38:11;;;;;;;;;;;;;;;21.05;32.37;99913.00;1466663;98;20184;-70
2022/05/11 09:40:56;;;;;;;;;;;;;;;21.50;32.26;99918.34;1463035;97;20117;-69
2022/05/11 09:43:43;;;;;;;;;;;;;;;21.96;31.46;99908.98;1478311;96;20287;-70
2022/05/11 09:46:22;;;;;;;;;;;;;;;22.24;30.97;99914.11;1464253;98;20454;-69
2022/05/11 09:51:38;;;;;;;;;;;;;;;22.16;31.02;99919.48;1506556;95;20174;-74
2022/05/11 09:54:18;;;;;;;;;;;;;;;21.59;31.57;99909.42;1542022;92;20153;-73
2022/05/11 09:57:03;;;;;;;;;;;;;;;21.16;32.07;99918.17;1557084;91;20176;-73
2022/05/11 09:59:37;;;;;;;;;;;;;;;21.09;33.02;99916.95;1534963;94;20126;-75
2022/05/11 10:02:13;;;;;;;;;;;;;;;20.96;33.27;99903.48;1535516;94;20150;-74
2022/05/11 10:04:44;;;;;;;;;;;;;;;21.18;33.99;99916.86;1535397;94;20145;-75
2022/05/11 10:07:13;;;;;;;;;;;;;;;21.26;32.49;99909.30;1535088;94;20170;-76
2022/05/11 10:09:43;;;;;;;;;;;;;;;21.19;33.28;99913.56;1535975;94;20448;-76
2022/05/11 10:12:14;;;;;;;;;;;;;;;21.25;32.91;99905.73;1536025;94;20161;-75
2022/05/11 10:23:35;;;;;;;;;;;;;;;21.38;33.41;99902.67;1516040;94;20609;-78
2022/05/11 10:26:08;;;;;;;;;;;;;;;21.49;31.95;99901.52;1523804;91;20171;-74
2022/05/11 10:28:49;;;;;;;;;;;;;;;21.35;32.90;99897.66;1568148;91;20112;-77
2022/05/11 10:31:22;;;;;;;;;;;;;;;21.41;33.39;99901.36;1571753;90;20502;-77
2022/05/11 10:33:57;;;;;;;;;;;;;;;21.51;32.31;99897.44;1572122;90;20160;-73
2022/05/11 10:36:27;;;;;;;;;;;;;;;21.33;31.90;99896.24;1579692;88;20137;-74
2022/05/11 10:39:13;;;;;;;;;;;;;;;21.17;32.60;99897.31;1607007;88;20151;-78
2022/05/11 10:41:44;;;;;;;;;;;;;;;21.16;32.44;99894.80;1607557;89;20136;-76
2022/05/11 10:44:34;;;;;;;;;;;;;;;21.48;32.79;99893.83;1609611;89;20539;-80
2022/05/11 10:47:07;;;;;;;;;;;;;;;21.65;32.35;99899.34;1672243;86;20104;-76
2022/05/11 10:49:47;;;;;;;;;;;;;;;21.92;32.03;99890.44;1672187;86;20141;-79
2022/05/11 10:52:44;;;;;;;;;;;;;;;22.05;31.35;99900.31;1670066;86;20119;-76
2022/05/11 10:55:18;;;;;;;;;;;;;;;22.20;31.53;99906.05;1712906;83;20135;-78
2022/05/11 10:57:57;;;;;;;;;;;;;;;22.41;31.54;99893.45;1736117;83;20158;-77
2022/05/11 11:00:26;;;;;;;;;;;;;;;22.68;30.78;99893.58;1737327;81;20120;-74
2022/05/11 11:03:29;;;;;;;;;;;;;;;22.40;30.29;99894.56;1735854;83;20116;-73
2022/05/11 11:09:10;;;;;;;;;;;;;;;22.56;31.06;99906.64;1735583;83;20108;-71
2022/05/11 11:11:47;;;;;;;;;;;;;;;22.87;30.32;99906.48;1736518;83;20424;-75
2022/05/11 11:14:16;;;;;;;;;;;;;;;22.64;29.55;99904.80;1736363;83;20988;-69
2022/05/11 11:16:42;;;;;;;;;;;;;;;22.61;30.17;99898.45;1735458;81;20101;-69
2022/05/11 11:19:09;;;;;;;;;;;;;;;22.69;29.65;99892.47;1735189;83;20140;-71
2022/05/11 11:21:40;;;;;;;;;;;;;;;22.69;30.28;99889.72;1735250;83;20097;-71
2022/05/11 11:24:17;;;;;;;;;;;;;;;22.92;30.31;99888.64;1735477;83;20113;-72
2022/05/11 11:26:53;;;;;;;;;;;;;;;23.12;30.01;99882.59;1735012;83;20120;-69
2022/05/11 11:29:23;;;;;;;;;;;;;;;23.18;29.29;99889.00;1735478;83;20240;-72
2022/05/11 11:32:01;;;;;;;;;;;;;;;23.08;29.08;99884.17;1756551;81;20109;-72
2022/05/11 11:34:31;;;;;;;;;;;;;;;22.96;29.09;99885.38;1770781;81;20165;-71
2022/05/11 11:36:59;;;;;;;;;;;;;;;22.98;29.59;99873.55;1647062;86;20139;-72
2022/05/11 11:39:53;;;;;;;;;;;;;;;23.24;29.77;99876.09;1645833;86;20150;-73
2022/05/11 11:42:32;;;;;;;;;;;;;;;23.25;28.95;99879.14;1644509;87;20322;-69
2022/05/11 11:44:59;;;;;;;;;;;;;;;23.06;28.57;99880.02;1645323;87;20185;-70
2022/05/11 11:47:30;;;;;;;;;;;;;;;22.78;28.56;99875.51;1644956;87;20428;-71
2022/05/11 11:49:58;;;;;;;;;;;;;;;22.85;29.47;99870.63;1644894;87;20480;-68
2022/05/11 11:52:36;;;;;;;;;;;;;;;22.92;28.76;99868.52;1645081;87;20150;-72
2022/05/11 11:55:08;;;;;;;;;;;;;;;22.70;28.86;99873.48;1611109;89;20261;-71
2022/05/11 11:57:35;;;;;;;;;;;;;;;22.58;28.68;99875.52;1536445;93;20161;-71
2022/05/11 12:00:25;;;;;;;;;;;;;;;22.27;28.71;99886.08;1537187;93;20161;-71
2022/05/11 12:02:53;;;;;;;;;;;;;;;22.24;29.35;99873.33;1536561;92;20129;-70
2022/05/11 12:05:37;;;;;;;;;;;;;;;22.38;29.46;99885.69;1536858;92;20114;-72
2022/05/11 12:16:53;;;;;;;;;;;;;;;21.85;29.67;99878.77;1494752;95;20449;-70
2022/05/11 12:19:20;;;;;;;;;;;;;;;22.10;30.26;99880.58;1510909;95;20447;-69
2022/05/11 12:21:59;;;;;;;;;;;;;;;22.41;30.23;99879.68;1509913;95;20197;-72
2022/05/11 12:24:32;;;;;;;;;;;;;;;22.63;30.03;99865.09;1484050;97;20151;-70
2022/05/11 12:27:05;;;;;;;;;;;;;;;22.82;29.36;99879.41;1483993;97;20201;-71
2022/05/11 12:32:25;;;;;;;;;;;;;;;22.40;29.32;99879.92;1483899;96;20182;-73
2022/05/11 12:34:52;;;;;;;;;;;;;;;22.36;29.36;99869.44;1550739;92;20147;-65
2022/05/11 12:37:27;;;;;;;;;;;;;;;22.20;28.94;99878.50;1557110;92;20183;-70
2022/05/11 12:39:59;;;;;;;;;;;;;;;22.04;29.58;99878.80;1571535;91;20169;-71
2022/05/11 12:42:28;;;;;;;;;;;;;;;21.97;30.20;99877.63;1573601;91;20173;-71
2022/05/11 12:44:56;;;;;;;;;;;;;;;21.91;29.49;99874.48;1516178;95;20161;-72
2022/05/11 12:47:23;;;;;;;;;;;;;;;21.78;29.97;99877.58;1517154;95;20603;-71
2022/05/11 12:49:50;;;;;;;;;;;;;;;21.91;30.10;99877.78;1516858;95;20154;-70
2022/05/11 12:52:17;;;;;;;;;;;;;;;22.06;30.21;99871.16;1503329;96;20187;-69
2022/05/11 12:54:58;;;;;;;;;;;;;;;22.24;29.77;99871.43;1503796;96;20205;-70
2022/05/11 12:57:26;;;;;;;;;;;;;;;22.35;29.83;99868.31;1503800;96;20157;-74
2022/05/11 12:59:54;;;;;;;;;;;;;;;22.37;29.03;99868.34;1509056;91;20161;-72
2022/05/11 13:02:26;;;;;;;;;;;;;;;22.22;30.03;99870.00;1574840;91;20111;-72
2022/05/11 13:04:57;;;;;;;;;;;;;;;22.16;29.36;99864.96;1574961;91;20119;-71
2022/05/11 13:07:26;;;;;;;;;;;;;;;21.78;29.61;99867.39;1574972;91;20151;-70
2022/05/11 13:09:57;;;;;;;;;;;;;;;21.61;30.60;99867.91;1575037;91;20151;-70
2022/05/11 13:12:23;;;;;;;;;;;;;;;21.63;30.49;99863.55;1574700;91;20278;-72
2022/05/11 13:14:53;;;;;;;;;;;;;;;21.55;30.62;99851.86;1575093;91;20452;-71
2022/05/11 13:17:37;;;;;;;;;;;;;;;21.60;30.77;99856.09;1574903;91;20108;-73
2022/05/11 13:20:06;;;;;;;;;;;;;;;21.54;30.73;99864.48;1558983;87;20163;-70
2022/05/11 13:22:33;;;;;;;;;;;;;;;21.52;30.73;99857.03;1549359;93;20178;-70
2022/05/11 13:25:03;;;;;;;;;;;;;;;21.60;31.09;99856.09;1549723;93;20156;-70
2022/05/11 13:27:39;;;;;;;;;;;;;;;21.75;31.31;99858.80;1549597;93;20113;-69
2022/05/11 13:30:12;;;;;;;;;;;;;;;21.88;30.60;99848.00;1549770;93;20113;-70
2022/05/11 13:32:42;;;;;;;;;;;;;;;21.92;30.61;99854.66;1549345;93;20105;-71
2022/05/11 13:35:32;;;;;;;;;;;;;;;21.80;30.72;99847.33;1540071;93;20220;-72
2022/05/11 13:38:11;;;;;;;;;;;;;;;21.65;30.82;99855.32;1540131;93;20434;-69
2022/05/11 13:40:58;;;;;;;;;;;;;;;21.50;30.07;99857.83;1534473;88;20154;-69
2022/05/11 13:43:31;;;;;;;;;;;;;;;21.10;30.43;99855.38;1625207;88;20115;-70
2022/05/11 13:46:06;;;;;;;;;;;;;;;20.86;30.46;99859.59;1625560;88;20153;-70
2022/05/11 13:48:36;;;;;;;;;;;;;;;20.65;30.64;99860.25;1625530;88;20103;-71
2022/05/11 13:51:21;;;;;;;;;;;;;;;20.54;31.12;99856.94;1578083;91;20124;-71
2022/05/11 13:53:51;;;;;;;;;;;;;;;20.59;31.40;99861.17;1577984;91;20408;-70
2022/05/11 13:56:25;;;;;;;;;;;;;;;20.57;31.17;99849.59;1578430;91;20112;-71
2022/05/11 13:59:00;;;;;;;;;;;;;;;20.52;31.43;99854.42;1577954;91;20149;-70